sensor_id;sensor_type;location;lat;lon;timestamp;P1;durP1;ratioP1;P2;durP2;ratioP2
1925;SDS011;964;42.606;23.588;2023-02-13T01:49:50;47.20;;;23.17;;
1925;SDS011;964;42.606;23.588;2023-02-13T01:52:30;58.57;;;26.77;;
1925;SDS011;964;42.606;23.588;2023-02-13T01:54:58;67.93;;;27.30;;
1925;SDS011;964;42.606;23.588;2023-02-13T01:57:26;68.65;;;34.97;;
1925;SDS011;964;42.606;23.588;2023-02-13T01:59:56;69.20;;;33.53;;
1925;SDS011;964;42.606;23.588;2023-02-13T02:02:28;70.93;;;33.20;;
1925;SDS011;964;42.606;23.588;2023-02-13T02:05:01;69.93;;;31.97;;
1925;SDS011;964;42.606;23.588;2023-02-13T02:07:28;62.17;;;29.90;;
1925;SDS011;964;42.606;23.588;2023-02-13T02:09:57;70.17;;;30.57;;
1925;SDS011;964;42.606;23.588;2023-02-13T02:12:28;62.03;;;30.97;;
1925;SDS011;964;42.606;23.588;2023-02-13T02:15:00;65.83;;;30.10;;
1925;SDS011;964;42.606;23.588;2023-02-13T02:17:28;64.10;;;31.43;;
1925;SDS011;964;42.606;23.588;2023-02-13T02:19:58;66.17;;;31.00;;
1925;SDS011;964;42.606;23.588;2023-02-13T02:26:05;69.63;;;33.40;;
1925;SDS011;964;42.606;23.588;2023-02-13T02:29:13;57.00;;;28.23;;
1925;SDS011;964;42.606;23.588;2023-02-13T02:32:03;69.43;;;30.13;;
1925;SDS011;964;42.606;23.588;2023-02-13T02:34:43;63.97;;;28.67;;
1925;SDS011;964;42.606;23.588;2023-02-13T02:37:23;63.57;;;31.23;;
1925;SDS011;964;42.606;23.588;2023-02-13T02:40:07;62.60;;;28.33;;
1925;SDS011;964;42.606;23.588;2023-02-13T02:42:44;66.37;;;31.67;;
1925;SDS011;964;42.606;23.588;2023-02-13T02:45:22;69.33;;;30.70;;
1925;SDS011;964;42.606;23.588;2023-02-13T02:47:58;76.33;;;32.90;;
1925;SDS011;964;42.606;23.588;2023-02-13T02:50:49;64.23;;;29.90;;
1925;SDS011;964;42.606;23.588;2023-02-13T02:53:24;67.53;;;30.67;;
1925;SDS011;964;42.606;23.588;2023-02-13T02:55:59;65.30;;;31.47;;
1925;SDS011;964;42.606;23.588;2023-02-13T02:58:30;73.33;;;33.30;;
1925;SDS011;964;42.606;23.588;2023-02-13T03:01:20;59.23;;;29.10;;
1925;SDS011;964;42.606;23.588;2023-02-13T03:04:10;59.50;;;27.57;;
1925;SDS011;964;42.606;23.588;2023-02-13T03:07:02;61.03;;;30.07;;
1925;SDS011;964;42.606;23.588;2023-02-13T03:09:34;64.77;;;31.30;;
1925;SDS011;964;42.606;23.588;2023-02-13T03:12:22;60.47;;;29.30;;
1925;SDS011;964;42.606;23.588;2023-02-13T03:15:12;72.77;;;31.97;;
1925;SDS011;964;42.606;23.588;2023-02-13T03:17:39;52.77;;;27.50;;
1925;SDS011;964;42.606;23.588;2023-02-13T03:20:27;65.20;;;32.03;;
1925;SDS011;964;42.606;23.588;2023-02-13T03:23:16;56.90;;;26.40;;
1925;SDS011;964;42.606;23.588;2023-02-13T03:26:12;60.50;;;24.30;;
1925;SDS011;964;42.606;23.588;2023-02-13T03:29:00;53.30;;;24.47;;
1925;SDS011;964;42.606;23.588;2023-02-13T03:31:53;64.13;;;29.50;;
1925;SDS011;964;42.606;23.588;2023-02-13T03:34:28;48.77;;;24.43;;
1925;SDS011;964;42.606;23.588;2023-02-13T03:37:22;49.87;;;22.17;;
1925;SDS011;964;42.606;23.588;2023-02-13T03:40:14;55.73;;;23.47;;
1925;SDS011;964;42.606;23.588;2023-02-13T03:42:47;58.03;;;23.40;;
1925;SDS011;964;42.606;23.588;2023-02-13T03:45:20;56.20;;;24.77;;
1925;SDS011;964;42.606;23.588;2023-02-13T03:48:08;51.87;;;23.57;;
1925;SDS011;964;42.606;23.588;2023-02-13T03:50:56;45.43;;;22.37;;
1925;SDS011;964;42.606;23.588;2023-02-13T03:53:25;52.47;;;21.73;;
1925;SDS011;964;42.606;23.588;2023-02-13T03:55:55;50.30;;;22.10;;
1925;SDS011;964;42.606;23.588;2023-02-13T03:58:45;46.07;;;20.87;;
1925;SDS011;964;42.606;23.588;2023-02-13T04:01:33;55.63;;;24.17;;
1925;SDS011;964;42.606;23.588;2023-02-13T04:04:04;47.63;;;22.57;;
1925;SDS011;964;42.606;23.588;2023-02-13T04:06:35;45.77;;;22.13;;
1925;SDS011;964;42.606;23.588;2023-02-13T04:09:09;42.63;;;21.70;;
1925;SDS011;964;42.606;23.588;2023-02-13T04:11:37;50.03;;;22.67;;
1925;SDS011;964;42.606;23.588;2023-02-13T04:14:08;55.17;;;23.90;;
1925;SDS011;964;42.606;23.588;2023-02-13T04:16:44;69.70;;;28.77;;
1925;SDS011;964;42.606;23.588;2023-02-13T04:19:15;61.37;;;29.43;;
1925;SDS011;964;42.606;23.588;2023-02-13T04:21:43;56.03;;;26.80;;
1925;SDS011;964;42.606;23.588;2023-02-13T04:24:11;55.67;;;29.90;;
1925;SDS011;964;42.606;23.588;2023-02-13T04:26:38;71.27;;;29.90;;
1925;SDS011;964;42.606;23.588;2023-02-13T04:29:07;62.23;;;29.90;;
1925;SDS011;964;42.606;23.588;2023-02-13T04:31:34;62.83;;;27.00;;
1925;SDS011;964;42.606;23.588;2023-02-13T04:34:00;64.53;;;30.73;;
1925;SDS011;964;42.606;23.588;2023-02-13T04:36:27;67.00;;;30.50;;
1925;SDS011;964;42.606;23.588;2023-02-13T04:38:54;57.50;;;30.20;;
1925;SDS011;964;42.606;23.588;2023-02-13T04:41:22;71.30;;;31.90;;
1925;SDS011;964;42.606;23.588;2023-02-13T04:43:49;69.50;;;30.70;;
1925;SDS011;964;42.606;23.588;2023-02-13T04:46:16;70.73;;;28.43;;
1925;SDS011;964;42.606;23.588;2023-02-13T04:48:43;60.63;;;26.73;;
1925;SDS011;964;42.606;23.588;2023-02-13T04:51:09;62.93;;;29.97;;
1925;SDS011;964;42.606;23.588;2023-02-13T04:53:36;58.73;;;30.10;;
1925;SDS011;964;42.606;23.588;2023-02-13T04:56:03;59.03;;;28.30;;
1925;SDS011;964;42.606;23.588;2023-02-13T04:58:31;51.87;;;24.93;;
1925;SDS011;964;42.606;23.588;2023-02-13T05:00:58;61.00;;;29.20;;
1925;SDS011;964;42.606;23.588;2023-02-13T05:03:24;62.97;;;30.20;;
1925;SDS011;964;42.606;23.588;2023-02-13T05:05:51;61.00;;;27.80;;
1925;SDS011;964;42.606;23.588;2023-02-13T05:08:18;58.77;;;28.10;;
1925;SDS011;964;42.606;23.588;2023-02-13T05:10:44;69.80;;;30.57;;
1925;SDS011;964;42.606;23.588;2023-02-13T05:13:11;63.93;;;29.90;;
1925;SDS011;964;42.606;23.588;2023-02-13T05:15:39;60.43;;;26.90;;
1925;SDS011;964;42.606;23.588;2023-02-13T05:18:06;60.20;;;28.10;;
1925;SDS011;964;42.606;23.588;2023-02-13T05:20:33;61.10;;;26.80;;
1925;SDS011;964;42.606;23.588;2023-02-13T05:22:59;58.70;;;28.03;;
1925;SDS011;964;42.606;23.588;2023-02-13T05:25:43;53.90;;;24.97;;
1925;SDS011;964;42.606;23.588;2023-02-13T05:28:10;57.50;;;25.60;;
1925;SDS011;964;42.606;23.588;2023-02-13T05:30:52;61.73;;;27.10;;
1925;SDS011;964;42.606;23.588;2023-02-13T05:33:19;59.67;;;27.20;;
1925;SDS011;964;42.606;23.588;2023-02-13T05:35:45;64.63;;;28.53;;
1925;SDS011;964;42.606;23.588;2023-02-13T05:41:34;65.63;;;30.40;;
1925;SDS011;964;42.606;23.588;2023-02-13T05:44:00;75.50;;;33.00;;
1925;SDS011;964;42.606;23.588;2023-02-13T05:46:28;63.87;;;31.83;;
1925;SDS011;964;42.606;23.588;2023-02-13T05:48:55;64.77;;;31.87;;
1925;SDS011;964;42.606;23.588;2023-02-13T05:51:22;63.67;;;33.43;;
1925;SDS011;964;42.606;23.588;2023-02-13T05:53:48;84.47;;;37.17;;
1925;SDS011;964;42.606;23.588;2023-02-13T05:56:15;74.83;;;36.10;;
1925;SDS011;964;42.606;23.588;2023-02-13T05:58:42;74.97;;;35.00;;
1925;SDS011;964;42.606;23.588;2023-02-13T06:01:09;71.83;;;34.57;;
1925;SDS011;964;42.606;23.588;2023-02-13T06:03:37;69.87;;;34.87;;
1925;SDS011;964;42.606;23.588;2023-02-13T06:06:05;72.73;;;37.03;;
1925;SDS011;964;42.606;23.588;2023-02-13T06:08:32;71.10;;;32.83;;
1925;SDS011;964;42.606;23.588;2023-02-13T06:10:58;76.53;;;33.00;;
1925;SDS011;964;42.606;23.588;2023-02-13T06:13:25;79.90;;;33.90;;
1925;SDS011;964;42.606;23.588;2023-02-13T06:15:52;61.70;;;30.93;;
1925;SDS011;964;42.606;23.588;2023-02-13T06:18:19;69.53;;;32.60;;
1925;SDS011;964;42.606;23.588;2023-02-13T06:20:47;70.10;;;31.80;;
1925;SDS011;964;42.606;23.588;2023-02-13T06:23:13;60.50;;;28.83;;
1925;SDS011;964;42.606;23.588;2023-02-13T06:25:41;55.60;;;27.20;;
1925;SDS011;964;42.606;23.588;2023-02-13T06:28:07;59.50;;;28.67;;
1925;SDS011;964;42.606;23.588;2023-02-13T06:30:34;61.80;;;28.37;;
1925;SDS011;964;42.606;23.588;2023-02-13T06:33:01;68.90;;;30.27;;
1925;SDS011;964;42.606;23.588;2023-02-13T06:35:27;59.93;;;26.30;;
1925;SDS011;964;42.606;23.588;2023-02-13T06:37:56;68.90;;;30.90;;
1925;SDS011;964;42.606;23.588;2023-02-13T06:40:22;61.10;;;28.60;;
1925;SDS011;964;42.606;23.588;2023-02-13T06:42:49;68.10;;;29.70;;
1925;SDS011;964;42.606;23.588;2023-02-13T06:45:16;70.50;;;29.67;;
1925;SDS011;964;42.606;23.588;2023-02-13T06:47:42;66.83;;;28.80;;
1925;SDS011;964;42.606;23.588;2023-02-13T06:50:11;67.47;;;29.97;;
1925;SDS011;964;42.606;23.588;2023-02-13T06:52:38;52.30;;;27.10;;
1925;SDS011;964;42.606;23.588;2023-02-13T06:55:11;74.57;;;30.03;;
1925;SDS011;964;42.606;23.588;2023-02-13T06:57:38;81.30;;;35.77;;
1925;SDS011;964;42.606;23.588;2023-02-13T07:00:05;76.37;;;31.87;;
1925;SDS011;964;42.606;23.588;2023-02-13T07:02:36;76.30;;;31.67;;
1925;SDS011;964;42.606;23.588;2023-02-13T07:05:03;72.23;;;32.57;;
1925;SDS011;964;42.606;23.588;2023-02-13T07:07:31;71.47;;;34.63;;
1925;SDS011;964;42.606;23.588;2023-02-13T07:09:58;76.07;;;35.03;;
1925;SDS011;964;42.606;23.588;2023-02-13T07:12:26;78.80;;;34.77;;
1925;SDS011;964;42.606;23.588;2023-02-13T07:14:53;85.97;;;38.63;;
1925;SDS011;964;42.606;23.588;2023-02-13T07:17:20;78.70;;;37.60;;
1925;SDS011;964;42.606;23.588;2023-02-13T07:19:47;83.70;;;35.47;;
1925;SDS011;964;42.606;23.588;2023-02-13T07:22:14;74.63;;;38.67;;
1925;SDS011;964;42.606;23.588;2023-02-13T07:24:40;77.60;;;36.80;;
1925;SDS011;964;42.606;23.588;2023-02-13T07:27:07;88.13;;;38.93;;
1925;SDS011;964;42.606;23.588;2023-02-13T07:29:36;79.00;;;39.77;;
1925;SDS011;964;42.606;23.588;2023-02-13T07:32:02;97.33;;;43.70;;
1925;SDS011;964;42.606;23.588;2023-02-13T07:34:31;91.53;;;41.27;;
1925;SDS011;964;42.606;23.588;2023-02-13T07:36:57;98.10;;;43.60;;
1925;SDS011;964;42.606;23.588;2023-02-13T07:39:24;96.27;;;43.23;;
1925;SDS011;964;42.606;23.588;2023-02-13T07:41:51;81.03;;;39.77;;
1925;SDS011;964;42.606;23.588;2023-02-13T07:44:17;85.40;;;40.27;;
1925;SDS011;964;42.606;23.588;2023-02-13T07:46:45;87.90;;;40.20;;
1925;SDS011;964;42.606;23.588;2023-02-13T07:49:12;100.97;;;41.17;;
1925;SDS011;964;42.606;23.588;2023-02-13T07:51:39;82.60;;;39.60;;
1925;SDS011;964;42.606;23.588;2023-02-13T07:54:05;86.07;;;41.47;;
1925;SDS011;964;42.606;23.588;2023-02-13T07:56:32;84.27;;;43.27;;
1925;SDS011;964;42.606;23.588;2023-02-13T07:58:58;100.20;;;41.70;;
1925;SDS011;964;42.606;23.588;2023-02-13T08:01:25;97.50;;;45.30;;
1925;SDS011;964;42.606;23.588;2023-02-13T08:03:53;93.50;;;39.97;;
1925;SDS011;964;42.606;23.588;2023-02-13T08:06:20;87.87;;;42.97;;
1925;SDS011;964;42.606;23.588;2023-02-13T08:08:47;85.60;;;43.57;;
1925;SDS011;964;42.606;23.588;2023-02-13T08:11:34;76.30;;;37.43;;
1925;SDS011;964;42.606;23.588;2023-02-13T08:14:18;76.87;;;36.07;;
1925;SDS011;964;42.606;23.588;2023-02-13T08:16:44;79.77;;;36.90;;
1925;SDS011;964;42.606;23.588;2023-02-13T08:19:12;75.83;;;36.50;;
1925;SDS011;964;42.606;23.588;2023-02-13T08:21:39;69.63;;;33.40;;
1925;SDS011;964;42.606;23.588;2023-02-13T08:24:06;72.77;;;34.40;;
1925;SDS011;964;42.606;23.588;2023-02-13T08:26:33;87.47;;;39.70;;
1925;SDS011;964;42.606;23.588;2023-02-13T08:29:00;82.77;;;35.23;;
1925;SDS011;964;42.606;23.588;2023-02-13T08:31:27;78.60;;;35.87;;
1925;SDS011;964;42.606;23.588;2023-02-13T08:33:54;60.07;;;27.50;;
1925;SDS011;964;42.606;23.588;2023-02-13T08:36:23;56.07;;;29.10;;
1925;SDS011;964;42.606;23.588;2023-02-13T08:38:49;65.53;;;30.47;;
1925;SDS011;964;42.606;23.588;2023-02-13T08:41:16;70.70;;;31.20;;
1925;SDS011;964;42.606;23.588;2023-02-13T08:43:45;64.40;;;33.40;;
1925;SDS011;964;42.606;23.588;2023-02-13T08:46:11;61.70;;;29.87;;
1925;SDS011;964;42.606;23.588;2023-02-13T08:48:38;57.80;;;30.00;;
1925;SDS011;964;42.606;23.588;2023-02-13T08:51:05;67.87;;;32.87;;
1925;SDS011;964;42.606;23.588;2023-02-13T08:53:34;63.97;;;30.20;;
1925;SDS011;964;42.606;23.588;2023-02-13T08:56:01;62.03;;;30.33;;
1925;SDS011;964;42.606;23.588;2023-02-13T08:58:28;52.90;;;26.67;;
1925;SDS011;964;42.606;23.588;2023-02-13T09:00:55;48.60;;;26.30;;
1925;SDS011;964;42.606;23.588;2023-02-13T09:03:21;53.77;;;25.97;;
1925;SDS011;964;42.606;23.588;2023-02-13T09:05:48;58.03;;;30.77;;
1925;SDS011;964;42.606;23.588;2023-02-13T09:08:15;55.80;;;27.33;;
1925;SDS011;964;42.606;23.588;2023-02-13T09:10:43;48.57;;;22.93;;
1925;SDS011;964;42.606;23.588;2023-02-13T09:13:10;49.10;;;24.57;;
1925;SDS011;964;42.606;23.588;2023-02-13T09:15:37;72.93;;;33.00;;
1925;SDS011;964;42.606;23.588;2023-02-13T09:18:05;55.93;;;27.63;;
1925;SDS011;964;42.606;23.588;2023-02-13T09:20:32;59.43;;;28.40;;
1925;SDS011;964;42.606;23.588;2023-02-13T09:22:59;63.50;;;30.83;;
1925;SDS011;964;42.606;23.588;2023-02-13T09:25:26;57.87;;;27.80;;
1925;SDS011;964;42.606;23.588;2023-02-13T09:27:54;58.70;;;27.87;;
1925;SDS011;964;42.606;23.588;2023-02-13T09:30:20;58.37;;;27.80;;
1925;SDS011;964;42.606;23.588;2023-02-13T09:32:48;72.80;;;32.93;;
1925;SDS011;964;42.606;23.588;2023-02-13T09:35:15;69.07;;;33.30;;
1925;SDS011;964;42.606;23.588;2023-02-13T09:37:42;66.00;;;30.23;;
1925;SDS011;964;42.606;23.588;2023-02-13T09:40:15;53.90;;;28.57;;
1925;SDS011;964;42.606;23.588;2023-02-13T09:42:43;58.33;;;30.57;;
1925;SDS011;964;42.606;23.588;2023-02-13T09:45:12;67.83;;;32.30;;
1925;SDS011;964;42.606;23.588;2023-02-13T09:47:42;69.37;;;31.70;;
1925;SDS011;964;42.606;23.588;2023-02-13T09:50:10;57.00;;;27.47;;
1925;SDS011;964;42.606;23.588;2023-02-13T09:52:42;62.97;;;29.90;;
1925;SDS011;964;42.606;23.588;2023-02-13T09:55:13;62.27;;;28.70;;
1925;SDS011;964;42.606;23.588;2023-02-13T09:57:42;61.37;;;29.47;;
1925;SDS011;964;42.606;23.588;2023-02-13T10:00:15;56.30;;;26.47;;
1925;SDS011;964;42.606;23.588;2023-02-13T10:02:50;57.97;;;26.50;;
1925;SDS011;964;42.606;23.588;2023-02-13T10:05:36;64.20;;;31.10;;
1925;SDS011;964;42.606;23.588;2023-02-13T10:08:12;65.40;;;29.50;;
1925;SDS011;964;42.606;23.588;2023-02-13T10:10:50;57.23;;;28.47;;
1925;SDS011;964;42.606;23.588;2023-02-13T10:13:27;65.53;;;30.77;;
1925;SDS011;964;42.606;23.588;2023-02-13T10:16:07;59.63;;;30.10;;
1925;SDS011;964;42.606;23.588;2023-02-13T10:18:41;55.80;;;29.53;;
1925;SDS011;964;42.606;23.588;2023-02-13T10:21:12;53.47;;;29.57;;
1925;SDS011;964;42.606;23.588;2023-02-13T10:23:44;69.17;;;30.37;;
1925;SDS011;964;42.606;23.588;2023-02-13T10:26:17;59.77;;;29.90;;
1925;SDS011;964;42.606;23.588;2023-02-13T10:28:46;59.07;;;30.17;;
1925;SDS011;964;42.606;23.588;2023-02-13T10:31:38;59.93;;;34.90;;
1925;SDS011;964;42.606;23.588;2023-02-13T10:34:09;63.17;;;33.00;;
1925;SDS011;964;42.606;23.588;2023-02-13T10:36:39;62.00;;;33.17;;
1925;SDS011;964;42.606;23.588;2023-02-13T10:39:13;67.17;;;35.00;;
1925;SDS011;964;42.606;23.588;2023-02-13T10:41:49;63.00;;;33.07;;
1925;SDS011;964;42.606;23.588;2023-02-13T10:44:24;65.00;;;35.50;;
1925;SDS011;964;42.606;23.588;2023-02-13T10:47:03;61.60;;;34.33;;
1925;SDS011;964;42.606;23.588;2023-02-13T10:49:42;66.23;;;35.10;;
1925;SDS011;964;42.606;23.588;2023-02-13T10:52:22;63.20;;;35.90;;
1925;SDS011;964;42.606;23.588;2023-02-13T10:55:01;59.70;;;34.30;;
1925;SDS011;964;42.606;23.588;2023-02-13T10:57:42;59.77;;;34.43;;
1925;SDS011;964;42.606;23.588;2023-02-13T11:00:22;54.57;;;33.20;;
1925;SDS011;964;42.606;23.588;2023-02-13T11:02:56;55.40;;;31.83;;
1925;SDS011;964;42.606;23.588;2023-02-13T11:05:25;63.23;;;37.00;;
1925;SDS011;964;42.606;23.588;2023-02-13T11:07:57;58.77;;;34.20;;
1925;SDS011;964;42.606;23.588;2023-02-13T11:10:25;57.50;;;32.43;;
1925;SDS011;964;42.606;23.588;2023-02-13T11:12:52;58.10;;;31.93;;
1925;SDS011;964;42.606;23.588;2023-02-13T11:15:20;52.90;;;31.37;;
1925;SDS011;964;42.606;23.588;2023-02-13T11:17:52;52.80;;;31.20;;
1925;SDS011;964;42.606;23.588;2023-02-13T11:20:26;53.90;;;31.10;;
1925;SDS011;964;42.606;23.588;2023-02-13T11:23:10;55.83;;;30.40;;
1925;SDS011;964;42.606;23.588;2023-02-13T11:25:52;58.30;;;31.60;;
1925;SDS011;964;42.606;23.588;2023-02-13T11:28:22;54.93;;;30.70;;
1925;SDS011;964;42.606;23.588;2023-02-13T11:30:48;53.23;;;28.33;;
1925;SDS011;964;42.606;23.588;2023-02-13T11:33:20;50.10;;;27.10;;
1925;SDS011;964;42.606;23.588;2023-02-13T11:35:50;54.47;;;28.90;;
1925;SDS011;964;42.606;23.588;2023-02-13T11:38:30;62.73;;;31.40;;
1925;SDS011;964;42.606;23.588;2023-02-13T11:41:03;53.27;;;27.97;;
1925;SDS011;964;42.606;23.588;2023-02-13T11:43:33;50.83;;;30.20;;
1925;SDS011;964;42.606;23.588;2023-02-13T11:46:03;54.97;;;31.47;;
1925;SDS011;964;42.606;23.588;2023-02-13T11:48:32;51.97;;;28.10;;
1925;SDS011;964;42.606;23.588;2023-02-13T11:51:01;50.17;;;28.77;;
1925;SDS011;964;42.606;23.588;2023-02-13T11:53:29;56.20;;;30.37;;
1925;SDS011;964;42.606;23.588;2023-02-13T11:56:03;50.77;;;29.40;;
1925;SDS011;964;42.606;23.588;2023-02-13T11:58:32;45.13;;;28.57;;
1925;SDS011;964;42.606;23.588;2023-02-13T12:01:07;49.57;;;29.87;;
1925;SDS011;964;42.606;23.588;2023-02-13T12:04:02;50.30;;;30.10;;
1925;SDS011;964;42.606;23.588;2023-02-13T12:06:33;47.27;;;29.13;;
1925;SDS011;964;42.606;23.588;2023-02-13T12:09:05;46.87;;;29.30;;
1925;SDS011;964;42.606;23.588;2023-02-13T12:11:39;58.07;;;31.03;;
1925;SDS011;964;42.606;23.588;2023-02-13T12:14:09;50.10;;;28.87;;
1925;SDS011;964;42.606;23.588;2023-02-13T12:16:39;55.87;;;29.13;;
1925;SDS011;964;42.606;23.588;2023-02-13T12:19:10;55.07;;;32.60;;
1925;SDS011;964;42.606;23.588;2023-02-13T12:21:47;46.90;;;27.93;;
1925;SDS011;964;42.606;23.588;2023-02-13T12:24:33;54.77;;;31.03;;
1925;SDS011;964;42.606;23.588;2023-02-13T12:27:14;56.30;;;30.80;;
1925;SDS011;964;42.606;23.588;2023-02-13T12:32:41;48.33;;;28.80;;
1925;SDS011;964;42.606;23.588;2023-02-13T12:35:20;51.00;;;29.97;;
1925;SDS011;964;42.606;23.588;2023-02-13T12:38:02;49.83;;;27.70;;
1925;SDS011;964;42.606;23.588;2023-02-13T12:40:42;47.73;;;26.43;;
1925;SDS011;964;42.606;23.588;2023-02-13T12:46:21;45.63;;;26.90;;
1925;SDS011;964;42.606;23.588;2023-02-13T12:48:55;45.43;;;25.50;;
1925;SDS011;964;42.606;23.588;2023-02-13T12:51:33;45.00;;;26.93;;
1925;SDS011;964;42.606;23.588;2023-02-13T12:54:17;51.73;;;25.57;;
1925;SDS011;964;42.606;23.588;2023-02-13T12:56:56;50.87;;;28.30;;
1925;SDS011;964;42.606;23.588;2023-02-13T12:59:33;42.40;;;26.50;;
1925;SDS011;964;42.606;23.588;2023-02-13T13:02:16;41.03;;;23.57;;
1925;SDS011;964;42.606;23.588;2023-02-13T13:05:03;41.20;;;23.50;;
1925;SDS011;964;42.606;23.588;2023-02-13T13:07:43;38.90;;;22.07;;
1925;SDS011;964;42.606;23.588;2023-02-13T13:10:32;38.10;;;24.20;;
1925;SDS011;964;42.606;23.588;2023-02-13T13:13:11;35.37;;;23.57;;
1925;SDS011;964;42.606;23.588;2023-02-13T13:15:48;33.03;;;21.37;;
1925;SDS011;964;42.606;23.588;2023-02-13T13:18:26;36.73;;;20.73;;
1925;SDS011;964;42.606;23.588;2023-02-13T13:21:13;36.73;;;21.60;;
1925;SDS011;964;42.606;23.588;2023-02-13T13:23:49;36.93;;;23.00;;
1925;SDS011;964;42.606;23.588;2023-02-13T13:26:26;35.83;;;21.40;;
1925;SDS011;964;42.606;23.588;2023-02-13T13:29:01;37.23;;;20.93;;
1925;SDS011;964;42.606;23.588;2023-02-13T13:31:32;33.57;;;19.70;;
1925;SDS011;964;42.606;23.588;2023-02-13T13:34:04;31.03;;;18.37;;
1925;SDS011;964;42.606;23.588;2023-02-13T13:36:35;31.53;;;16.90;;
1925;SDS011;964;42.606;23.588;2023-02-13T13:39:13;19.60;;;13.77;;
1925;SDS011;964;42.606;23.588;2023-02-13T13:41:53;19.90;;;12.50;;
1925;SDS011;964;42.606;23.588;2023-02-13T13:44:37;20.50;;;12.90;;
1925;SDS011;964;42.606;23.588;2023-02-13T13:47:29;23.00;;;13.60;;
1925;SDS011;964;42.606;23.588;2023-02-13T13:50:11;23.33;;;13.40;;
1925;SDS011;964;42.606;23.588;2023-02-13T13:58:43;18.00;;;10.50;;
1925;SDS011;964;42.606;23.588;2023-02-13T14:01:17;16.53;;;10.17;;
1925;SDS011;964;42.606;23.588;2023-02-13T14:03:47;18.27;;;9.20;;
1925;SDS011;964;42.606;23.588;2023-02-13T14:06:15;17.10;;;9.20;;
1925;SDS011;964;42.606;23.588;2023-02-13T14:11:37;12.80;;;7.67;;
1925;SDS011;964;42.606;23.588;2023-02-13T14:17:14;14.60;;;8.80;;
1925;SDS011;964;42.606;23.588;2023-02-13T14:19:45;10.87;;;7.93;;
1925;SDS011;964;42.606;23.588;2023-02-13T14:22:30;13.37;;;8.30;;
1925;SDS011;964;42.606;23.588;2023-02-13T14:25:00;12.80;;;7.73;;
1925;SDS011;964;42.606;23.588;2023-02-13T14:27:29;12.07;;;8.10;;
1925;SDS011;964;42.606;23.588;2023-02-13T14:29:58;16.23;;;9.20;;
1925;SDS011;964;42.606;23.588;2023-02-13T14:32:28;13.50;;;7.77;;
1925;SDS011;964;42.606;23.588;2023-02-13T14:34:57;15.87;;;9.17;;
1925;SDS011;964;42.606;23.588;2023-02-13T14:37:30;20.13;;;9.20;;
1925;SDS011;964;42.606;23.588;2023-02-13T14:46:03;15.73;;;9.30;;
1925;SDS011;964;42.606;23.588;2023-02-13T14:48:40;16.80;;;9.37;;
1925;SDS011;964;42.606;23.588;2023-02-13T14:51:13;16.53;;;10.20;;
1925;SDS011;964;42.606;23.588;2023-02-13T14:53:53;17.37;;;9.77;;
1925;SDS011;964;42.606;23.588;2023-02-13T14:56:23;17.40;;;9.80;;
1925;SDS011;964;42.606;23.588;2023-02-13T14:58:51;17.27;;;9.20;;
1925;SDS011;964;42.606;23.588;2023-02-13T15:01:24;17.97;;;10.27;;
1925;SDS011;964;42.606;23.588;2023-02-13T15:03:57;18.20;;;8.70;;
1925;SDS011;964;42.606;23.588;2023-02-13T15:06:32;16.70;;;8.43;;
1925;SDS011;964;42.606;23.588;2023-02-13T15:09:04;18.07;;;9.50;;
1925;SDS011;964;42.606;23.588;2023-02-13T15:11:44;19.63;;;9.10;;
1925;SDS011;964;42.606;23.588;2023-02-13T15:14:21;17.57;;;10.03;;
1925;SDS011;964;42.606;23.588;2023-02-13T15:16:52;19.03;;;10.50;;
1925;SDS011;964;42.606;23.588;2023-02-13T15:19:24;16.70;;;8.70;;
1925;SDS011;964;42.606;23.588;2023-02-13T15:21:53;22.20;;;10.67;;
1925;SDS011;964;42.606;23.588;2023-02-13T15:24:23;20.50;;;9.83;;
1925;SDS011;964;42.606;23.588;2023-02-13T15:26:58;17.73;;;10.20;;
1925;SDS011;964;42.606;23.588;2023-02-13T15:29:26;18.07;;;10.50;;
1925;SDS011;964;42.606;23.588;2023-02-13T15:31:54;22.93;;;10.57;;
1925;SDS011;964;42.606;23.588;2023-02-13T15:34:22;28.40;;;10.50;;
1925;SDS011;964;42.606;23.588;2023-02-13T15:36:52;14.77;;;9.53;;
1925;SDS011;964;42.606;23.588;2023-02-13T15:39:22;18.70;;;10.07;;
1925;SDS011;964;42.606;23.588;2023-02-13T15:41:51;15.20;;;8.97;;
1925;SDS011;964;42.606;23.588;2023-02-13T15:44:21;19.70;;;10.00;;
1925;SDS011;964;42.606;23.588;2023-02-13T15:46:50;19.57;;;11.27;;
1925;SDS011;964;42.606;23.588;2023-02-13T15:49:20;23.40;;;11.13;;
1925;SDS011;964;42.606;23.588;2023-02-13T15:51:51;25.07;;;12.90;;
1925;SDS011;964;42.606;23.588;2023-02-13T15:54:28;21.43;;;11.63;;
1925;SDS011;964;42.606;23.588;2023-02-13T15:56:56;20.87;;;11.70;;
1925;SDS011;964;42.606;23.588;2023-02-13T15:59:28;22.33;;;10.97;;
1925;SDS011;964;42.606;23.588;2023-02-13T16:01:57;25.30;;;11.57;;
1925;SDS011;964;42.606;23.588;2023-02-13T16:04:25;27.70;;;13.00;;
1925;SDS011;964;42.606;23.588;2023-02-13T16:06:55;23.83;;;12.37;;
1925;SDS011;964;42.606;23.588;2023-02-13T16:09:24;19.50;;;12.43;;
1925;SDS011;964;42.606;23.588;2023-02-13T16:12:02;20.30;;;12.37;;
1925;SDS011;964;42.606;23.588;2023-02-13T16:14:31;26.63;;;13.30;;
1925;SDS011;964;42.606;23.588;2023-02-13T16:17:02;17.57;;;11.43;;
1925;SDS011;964;42.606;23.588;2023-02-13T16:19:34;23.27;;;13.30;;
1925;SDS011;964;42.606;23.588;2023-02-13T16:22:13;30.40;;;14.40;;
1925;SDS011;964;42.606;23.588;2023-02-13T16:24:47;27.40;;;13.70;;
1925;SDS011;964;42.606;23.588;2023-02-13T16:27:17;25.00;;;13.17;;
1925;SDS011;964;42.606;23.588;2023-02-13T16:29:49;20.90;;;11.40;;
1925;SDS011;964;42.606;23.588;2023-02-13T16:32:24;27.27;;;13.80;;
1925;SDS011;964;42.606;23.588;2023-02-13T16:34:54;22.10;;;12.30;;
1925;SDS011;964;42.606;23.588;2023-02-13T16:37:30;22.20;;;12.67;;
1925;SDS011;964;42.606;23.588;2023-02-13T16:46:08;22.67;;;12.97;;
1925;SDS011;964;42.606;23.588;2023-02-13T16:49:03;23.00;;;13.47;;
1925;SDS011;964;42.606;23.588;2023-02-13T16:51:38;25.87;;;13.53;;
1925;SDS011;964;42.606;23.588;2023-02-13T16:54:15;27.17;;;13.90;;
1925;SDS011;964;42.606;23.588;2023-02-13T16:56:46;28.63;;;12.73;;
1925;SDS011;964;42.606;23.588;2023-02-13T16:59:25;26.83;;;13.93;;
1925;SDS011;964;42.606;23.588;2023-02-13T17:04:48;28.53;;;12.97;;
1925;SDS011;964;42.606;23.588;2023-02-13T17:07:19;31.23;;;14.70;;
1925;SDS011;964;42.606;23.588;2023-02-13T17:09:52;29.23;;;14.73;;
1925;SDS011;964;42.606;23.588;2023-02-13T17:12:23;29.27;;;15.50;;
1925;SDS011;964;42.606;23.588;2023-02-13T17:14:51;28.23;;;13.67;;
1925;SDS011;964;42.606;23.588;2023-02-13T17:17:19;26.03;;;14.00;;
1925;SDS011;964;42.606;23.588;2023-02-13T17:19:47;30.07;;;15.37;;
1925;SDS011;964;42.606;23.588;2023-02-13T17:22:21;26.43;;;13.97;;
1925;SDS011;964;42.606;23.588;2023-02-13T17:24:56;28.83;;;14.60;;
1925;SDS011;964;42.606;23.588;2023-02-13T17:27:23;28.13;;;14.33;;
1925;SDS011;964;42.606;23.588;2023-02-13T17:29:50;27.20;;;14.97;;
1925;SDS011;964;42.606;23.588;2023-02-13T17:32:17;26.17;;;14.30;;
1925;SDS011;964;42.606;23.588;2023-02-13T17:34:46;35.43;;;15.47;;
1925;SDS011;964;42.606;23.588;2023-02-13T17:37:16;26.53;;;15.33;;
1925;SDS011;964;42.606;23.588;2023-02-13T17:39:45;24.10;;;14.87;;
1925;SDS011;964;42.606;23.588;2023-02-13T17:42:15;28.83;;;17.00;;
1925;SDS011;964;42.606;23.588;2023-02-13T17:44:44;29.00;;;14.17;;
1925;SDS011;964;42.606;23.588;2023-02-13T17:47:12;27.43;;;14.43;;